createdAt,value
2023-01-22T00:01:52.168Z,-2.84
2023-01-22T00:04:21.531Z,-2.79
2023-01-22T00:06:51.141Z,-2.81
2023-01-22T00:09:22.032Z,-2.86
2023-01-22T00:11:52.410Z,-2.88
2023-01-22T00:14:21.755Z,-2.88
2023-01-22T00:16:50.980Z,-2.99
2023-01-22T00:19:20.641Z,-3.04
2023-01-22T00:21:50.230Z,-2.98
2023-01-22T00:24:19.834Z,-3.02
2023-01-22T00:26:49.359Z,-3.02
2023-01-22T00:29:19.037Z,-3.01
2023-01-22T00:31:48.827Z,-2.98
2023-01-22T00:34:18.533Z,-2.97
2023-01-22T00:36:48.033Z,-2.94
2023-01-22T00:39:17.510Z,-3.04
2023-01-22T00:41:46.809Z,-3.07
2023-01-22T00:44:16.319Z,-3.12
2023-01-22T00:46:45.669Z,-3.20
2023-01-22T00:49:15.006Z,-3.28
2023-01-22T00:51:46.380Z,-3.30
2023-01-22T00:54:15.674Z,-3.31
2023-01-22T00:56:45.570Z,-3.35
2023-01-22T00:59:14.795Z,-3.38
2023-01-22T01:01:44.419Z,-3.39
2023-01-22T01:04:14.545Z,-3.38
2023-01-22T01:06:43.774Z,-3.42
2023-01-22T01:09:14.534Z,-3.39
2023-01-22T01:11:44.113Z,-3.41
2023-01-22T01:14:13.330Z,-3.33
2023-01-22T01:16:43.763Z,-3.26
2023-01-22T01:19:13.914Z,-3.23
2023-01-22T01:21:43.207Z,-3.14
2023-01-22T01:24:12.686Z,-3.10
2023-01-22T01:26:42.843Z,-3.08
2023-01-22T01:29:12.606Z,-3.10
2023-01-22T01:31:41.955Z,-3.04
2023-01-22T01:34:11.203Z,-2.98
2023-01-22T01:36:49.375Z,-2.93
2023-01-22T01:39:11.358Z,-2.88
2023-01-22T01:41:41.270Z,-2.88
2023-01-22T01:44:20.217Z,-2.82
2023-01-22T01:46:52.887Z,-2.80
2023-01-22T01:49:46.191Z,-2.75
2023-01-22T01:52:16.155Z,-2.69
2023-01-22T01:54:47.905Z,-2.71
2023-01-22T01:57:23.219Z,-2.67
2023-01-22T01:59:53.204Z,-2.65
2023-01-22T02:02:23.882Z,-2.69
2023-01-22T02:04:54.119Z,-2.64
2023-01-22T02:07:23.369Z,-2.66
2023-01-22T02:09:52.578Z,-2.61
2023-01-22T02:12:22.130Z,-2.58
2023-01-22T02:14:51.885Z,-2.60
2023-01-22T02:17:23.196Z,-2.61
2023-01-22T02:19:52.671Z,-2.70
2023-01-22T02:22:25.663Z,-2.74
2023-01-22T02:24:54.890Z,-2.84
2023-01-22T02:27:24.596Z,-2.85
2023-01-22T02:29:55.046Z,-2.77
2023-01-22T02:32:24.688Z,-2.82
2023-01-22T02:34:54.180Z,-2.82
2023-01-22T02:37:23.797Z,-2.83
2023-01-22T02:39:55.050Z,-2.81
2023-01-22T02:42:26.573Z,-2.77
2023-01-22T02:44:55.826Z,-2.78
2023-01-22T02:47:25.318Z,-2.75
2023-01-22T02:49:55.295Z,-2.72
2023-01-22T02:52:24.873Z,-2.65
2023-01-22T02:54:54.474Z,-2.61
2023-01-22T02:57:23.702Z,-2.63
2023-01-22T02:59:53.594Z,-2.59
2023-01-22T03:02:22.904Z,-2.50
2023-01-22T03:04:55.080Z,-2.50
2023-01-22T03:07:24.480Z,-2.46
2023-01-22T03:09:54.503Z,-2.43
2023-01-22T03:12:23.966Z,-2.40
2023-01-22T03:15:11.165Z,-2.53
2023-01-22T03:17:58.240Z,-2.50
2023-01-22T03:20:45.873Z,-2.50
2023-01-22T03:23:15.933Z,-2.55
2023-01-22T03:25:45.487Z,-2.57
2023-01-22T03:28:17.016Z,-2.56
2023-01-22T03:30:48.064Z,-2.51
2023-01-22T03:33:17.258Z,-2.56
2023-01-22T03:35:47.962Z,-2.66
2023-01-22T03:38:18.957Z,-2.63
2023-01-22T03:40:48.250Z,-2.55
2023-01-22T03:43:17.613Z,-2.50
2023-01-22T03:45:46.997Z,-2.48
2023-01-22T03:48:17.294Z,-2.58
2023-01-22T03:50:48.509Z,-2.50
2023-01-22T03:53:18.556Z,-2.56
2023-01-22T03:55:58.858Z,-2.50
2023-01-22T03:58:30.985Z,-2.52
2023-01-22T04:01:06.773Z,-2.43
2023-01-22T04:03:36.735Z,-2.51
2023-01-22T04:06:09.093Z,-2.45
2023-01-22T04:08:40.389Z,-2.52
2023-01-22T04:11:11.117Z,-2.44
2023-01-22T04:13:41.861Z,-2.46
2023-01-22T04:16:12.645Z,-2.49
2023-01-22T04:19:01.893Z,-2.43
2023-01-22T04:21:49.300Z,-2.47
2023-01-22T04:24:20.151Z,-2.43
2023-01-22T04:26:50.265Z,-2.49
2023-01-22T04:29:21.128Z,-2.52
2023-01-22T04:31:50.737Z,-2.46
2023-01-22T04:34:24.459Z,-2.54
2023-01-22T04:36:55.821Z,-2.53
2023-01-22T04:39:26.745Z,-2.54
2023-01-22T04:41:56.075Z,-2.63
2023-01-22T04:44:25.362Z,-2.66
2023-01-22T04:46:55.463Z,-2.66
2023-01-22T04:49:25.007Z,-2.61
2023-01-22T04:51:56.741Z,-2.62
2023-01-22T04:54:27.302Z,-2.57
2023-01-22T04:56:56.713Z,-2.56
2023-01-22T04:59:26.702Z,-2.62
2023-01-22T05:01:55.939Z,-2.68
2023-01-22T05:04:25.280Z,-2.57
2023-01-22T05:06:55.265Z,-2.57
2023-01-22T05:09:25.592Z,-2.58
2023-01-22T05:11:56.540Z,-2.50
2023-01-22T05:14:26.527Z,-2.44
2023-01-22T05:16:56.061Z,-2.42
2023-01-22T05:19:25.685Z,-2.36
2023-01-22T05:21:55.093Z,-2.30
2023-01-22T05:24:24.650Z,-2.32
2023-01-22T05:26:54.544Z,-2.32
2023-01-22T05:29:28.627Z,-2.32
2023-01-22T05:32:06.189Z,-2.28
2023-01-22T05:34:37.139Z,-2.24
2023-01-22T05:37:06.723Z,-2.17
2023-01-22T05:39:37.118Z,-2.14
2023-01-22T05:42:08.001Z,-2.11
2023-01-22T05:44:38.422Z,-2.05
2023-01-22T05:47:07.815Z,-2.01
2023-01-22T05:49:44.822Z,-2.00
2023-01-22T05:52:16.354Z,-1.96
2023-01-22T05:54:46.791Z,-1.93
2023-01-22T05:57:16.409Z,-1.89
2023-01-22T05:59:45.912Z,-1.86
2023-01-22T06:02:15.961Z,-1.88
2023-01-22T06:04:46.174Z,-1.86
2023-01-22T06:07:17.469Z,-1.85
2023-01-22T06:09:47.267Z,-1.84
2023-01-22T06:12:18.514Z,-1.87
2023-01-22T06:14:48.700Z,-1.84
2023-01-22T06:17:18.334Z,-1.83
2023-01-22T06:19:49.461Z,-1.88
2023-01-22T06:22:19.882Z,-1.89
2023-01-22T06:24:50.841Z,-1.85
2023-01-22T06:27:20.800Z,-1.84
2023-01-22T06:29:52.293Z,-1.84
2023-01-22T06:32:22.243Z,-1.89
2023-01-22T06:34:52.660Z,-1.83
2023-01-22T06:37:23.247Z,-1.83
2023-01-22T06:39:53.407Z,-1.82
2023-01-22T06:42:27.202Z,-1.83
2023-01-22T06:44:58.541Z,-1.84
2023-01-22T06:47:29.877Z,-1.80
2023-01-22T06:49:59.627Z,-1.82
2023-01-22T06:52:29.624Z,-1.83
2023-01-22T06:54:59.704Z,-1.83
2023-01-22T06:57:29.738Z,-1.84
2023-01-22T06:59:59.355Z,-1.82
2023-01-22T07:02:30.607Z,-1.81
2023-01-22T07:04:59.901Z,-1.79
2023-01-22T07:07:29.111Z,-1.78
2023-01-22T07:09:58.380Z,-1.79
2023-01-22T07:12:27.871Z,-1.81
2023-01-22T07:14:57.284Z,-1.80
2023-01-22T07:17:26.979Z,-1.79
2023-01-22T07:19:56.464Z,-1.79
2023-01-22T07:22:26.131Z,-1.79
2023-01-22T07:24:55.385Z,-1.80
2023-01-22T07:27:24.659Z,-1.82
2023-01-22T07:29:53.842Z,-1.79
2023-01-22T07:32:23.254Z,-1.77
2023-01-22T07:34:52.484Z,-1.76
2023-01-22T07:37:21.735Z,-1.75
2023-01-22T07:39:50.948Z,-1.76
2023-01-22T07:42:20.184Z,-1.77
2023-01-22T07:44:49.875Z,-1.76
2023-01-22T07:47:19.629Z,-1.72
2023-01-22T07:49:49.098Z,-1.72
2023-01-22T07:52:18.698Z,-1.74
2023-01-22T07:54:48.161Z,-1.73
2023-01-22T07:57:18.801Z,-1.75
2023-01-22T07:59:48.207Z,-1.75
2023-01-22T08:02:18.162Z,-1.73
2023-01-22T08:04:47.832Z,-1.72
2023-01-22T08:07:19.631Z,-1.72
2023-01-22T08:09:48.860Z,-1.76
2023-01-22T08:12:18.422Z,-1.75
2023-01-22T08:14:47.963Z,-1.76
2023-01-22T08:17:17.677Z,-1.75
2023-01-22T08:19:47.411Z,-1.73
2023-01-22T08:22:16.865Z,-1.76
2023-01-22T08:24:46.544Z,-1.73
2023-01-22T08:27:16.123Z,-1.75
2023-01-22T08:29:45.656Z,-1.72
2023-01-22T08:32:15.035Z,-1.70
2023-01-22T08:34:44.465Z,-1.64
2023-01-22T08:37:13.772Z,-1.67
2023-01-22T08:39:43.374Z,-1.64
2023-01-22T08:42:12.618Z,-1.63
2023-01-22T08:44:42.256Z,-1.62
2023-01-22T08:47:11.674Z,-1.56
2023-01-22T08:49:40.990Z,-1.53
2023-01-22T08:52:10.681Z,-1.53
2023-01-22T08:54:40.167Z,-1.43
2023-01-22T08:57:10.120Z,-1.45
2023-01-22T08:59:40.440Z,-1.34
2023-01-22T09:02:15.335Z,-1.36
2023-01-22T09:04:45.242Z,-1.31
2023-01-22T09:07:14.753Z,-1.32
2023-01-22T09:09:44.012Z,-1.39
2023-01-22T09:12:13.563Z,-1.30
2023-01-22T09:14:43.092Z,-1.26
2023-01-22T09:17:12.906Z,-1.22
2023-01-22T09:19:42.750Z,-1.22
2023-01-22T09:22:12.603Z,-1.07
2023-01-22T09:24:41.989Z,-1.23
2023-01-22T09:27:12.399Z,-1.27
2023-01-22T09:29:41.630Z,-1.28
2023-01-22T09:32:11.749Z,-1.22
2023-01-22T09:34:40.979Z,-1.19
2023-01-22T09:37:13.020Z,-1.20
2023-01-22T09:39:42.502Z,-1.18
2023-01-22T09:42:13.770Z,-1.18
2023-01-22T09:44:45.906Z,-1.15
2023-01-22T09:47:21.119Z,-1.05
2023-01-22T09:49:56.347Z,-1.15
2023-01-22T09:52:29.309Z,-1.18
2023-01-22T09:54:58.534Z,-1.16
2023-01-22T09:57:32.417Z,-1.04
2023-01-22T09:59:59.071Z,-1.06
2023-01-22T10:02:43.969Z,-1.07
2023-01-22T10:05:36.849Z,-1.04
2023-01-22T10:08:07.259Z,-0.98
2023-01-22T10:10:36.821Z,-1.03
2023-01-22T10:13:21.489Z,-0.93
2023-01-22T10:15:53.192Z,-1.03
2023-01-22T10:18:37.631Z,-1.04
2023-01-22T10:21:12.779Z,-1.07
2023-01-22T10:23:42.004Z,-1.11
2023-01-22T10:26:19.640Z,-1.02
2023-01-22T10:28:50.920Z,-1.01
2023-01-22T10:31:26.442Z,-1.02
2023-01-22T10:34:07.634Z,-0.98
2023-01-22T10:36:37.052Z,-0.91
2023-01-22T10:39:16.829Z,-0.94
2023-01-22T10:41:47.803Z,-0.90
2023-01-22T10:44:24.941Z,-0.83
2023-01-22T10:46:55.651Z,-0.81
2023-01-22T10:49:26.602Z,-0.78
2023-01-22T10:52:00.839Z,-0.76
2023-01-22T10:54:43.832Z,-0.72
2023-01-22T10:57:34.022Z,-0.80
2023-01-22T11:00:18.316Z,-0.79
2023-01-22T11:02:51.918Z,-0.81
2023-01-22T11:05:24.017Z,-0.77
2023-01-22T11:08:05.324Z,-0.65
2023-01-22T11:10:55.284Z,-0.73
2023-01-22T11:13:48.725Z,-0.68
2023-01-22T11:16:25.533Z,-0.68
2023-01-22T11:18:58.005Z,-0.70
2023-01-22T11:21:38.926Z,-0.56
2023-01-22T11:24:20.639Z,-0.52
2023-01-22T11:27:01.256Z,-0.53
2023-01-22T11:29:52.227Z,-0.45
2023-01-22T11:32:47.847Z,-0.42
2023-01-22T11:35:38.519Z,-0.38
2023-01-22T11:38:10.897Z,-0.39
2023-01-22T11:40:44.072Z,-0.34
2023-01-22T11:43:28.435Z,-0.43
2023-01-22T11:46:20.770Z,-0.53
2023-01-22T11:49:05.535Z,-0.54
2023-01-22T11:51:41.020Z,-0.65
2023-01-22T11:54:40.507Z,-0.65
2023-01-22T11:57:28.585Z,-0.64
2023-01-22T12:00:29.892Z,-0.66
2023-01-22T12:03:14.887Z,-0.59
2023-01-22T12:06:07.006Z,-0.56
2023-01-22T12:08:48.248Z,-0.52
2023-01-22T12:11:29.253Z,-0.49
2023-01-22T12:14:22.366Z,-0.50
2023-01-22T12:17:11.408Z,-0.55
2023-01-22T12:20:01.159Z,-0.63
2023-01-22T12:22:39.691Z,-0.55
2023-01-22T12:25:32.144Z,-0.45
2023-01-22T12:28:04.930Z,-0.60
2023-01-22T12:30:53.840Z,-0.61
2023-01-22T12:33:26.943Z,-0.58
2023-01-22T12:35:58.624Z,-0.48
2023-01-22T12:38:39.659Z,-0.56
2023-01-22T12:41:39.570Z,-0.56
2023-01-22T12:44:18.276Z,-0.52
2023-01-22T12:46:53.319Z,-0.57
2023-01-22T12:49:22.621Z,-0.65
2023-01-22T12:51:54.879Z,-0.58
2023-01-22T12:54:30.032Z,-0.60
2023-01-22T12:57:10.977Z,-0.67
2023-01-22T12:59:43.458Z,-0.59
2023-01-22T13:02:30.619Z,-0.61
2023-01-22T13:05:02.924Z,-0.57
2023-01-22T13:07:33.072Z,-0.58
2023-01-22T13:10:25.096Z,-0.61
2023-01-22T13:12:56.885Z,-0.54
2023-01-22T13:15:32.155Z,-0.56
2023-01-22T13:18:08.166Z,-0.60
2023-01-22T13:20:41.423Z,-0.56
2023-01-22T13:23:12.225Z,-0.53
2023-01-22T13:25:42.820Z,-0.47
2023-01-22T13:28:19.791Z,-0.48
2023-01-22T13:31:01.002Z,-0.45
2023-01-22T13:33:30.787Z,-0.47
2023-01-22T13:36:01.894Z,-0.45
2023-01-22T13:38:35.527Z,-0.43
2023-01-22T13:41:09.910Z,-0.43
2023-01-22T13:43:40.144Z,-0.39
2023-01-22T13:46:12.873Z,-0.32
2023-01-22T13:48:42.261Z,-0.17
2023-01-22T13:51:16.332Z,-0.11
2023-01-22T13:53:51.064Z,-0.09
2023-01-22T13:56:26.841Z,-0.10
2023-01-22T13:59:17.357Z,-0.14
2023-01-22T14:01:48.531Z,-0.11
2023-01-22T14:04:37.143Z,-0.07
2023-01-22T14:07:07.452Z,-0.05
2023-01-22T14:09:40.608Z,0.06
2023-01-22T14:12:22.851Z,0.05
2023-01-22T14:14:52.420Z,-0.01
2023-01-22T14:17:28.776Z,-0.11
2023-01-22T14:19:59.085Z,-0.11
2023-01-22T14:22:28.664Z,-0.18
2023-01-22T14:24:58.221Z,-0.15
2023-01-22T14:27:30.587Z,-0.23
2023-01-22T14:30:00.150Z,-0.18
2023-01-22T14:32:30.644Z,-0.17
2023-01-22T14:35:01.768Z,-0.21
2023-01-22T14:37:31.547Z,-0.17
2023-01-22T14:40:01.133Z,-0.16
2023-01-22T14:42:30.339Z,-0.15
2023-01-22T14:44:59.611Z,-0.24
2023-01-22T14:47:29.086Z,-0.26
2023-01-22T14:49:58.361Z,-0.21
2023-01-22T14:52:27.679Z,-0.18
2023-01-22T14:54:57.025Z,-0.24
2023-01-22T14:57:27.026Z,-0.24
2023-01-22T14:59:56.304Z,-0.32
2023-01-22T15:02:25.949Z,-0.30
2023-01-22T15:04:55.481Z,-0.34
2023-01-22T15:07:24.873Z,-0.33
2023-01-22T15:09:54.105Z,-0.33
2023-01-22T15:12:23.989Z,-0.33
2023-01-22T15:14:53.307Z,-0.34
2023-01-22T15:17:23.230Z,-0.34
2023-01-22T15:19:52.532Z,-0.34
2023-01-22T15:22:22.100Z,-0.38
2023-01-22T15:24:51.819Z,-0.35
2023-01-22T15:27:21.299Z,-0.33
2023-01-22T15:29:50.567Z,-0.39
2023-01-22T15:32:20.152Z,-0.37
2023-01-22T15:34:49.982Z,-0.34
2023-01-22T15:37:19.621Z,-0.38
2023-01-22T15:39:49.064Z,-0.39
2023-01-22T15:42:18.679Z,-0.39
2023-01-22T15:44:48.102Z,-0.41
2023-01-22T15:47:17.612Z,-0.42
2023-01-22T15:49:46.935Z,-0.45
2023-01-22T15:52:16.427Z,-0.43
2023-01-22T15:54:46.368Z,-0.45
2023-01-22T15:57:15.611Z,-0.40
2023-01-22T15:59:44.897Z,-0.46
2023-01-22T16:02:14.163Z,-0.54
2023-01-22T16:04:43.375Z,-0.53
2023-01-22T16:07:12.718Z,-0.52
2023-01-22T16:09:42.157Z,-0.57
2023-01-22T16:12:11.736Z,-0.58
2023-01-22T16:14:40.987Z,-0.52
2023-01-22T16:17:10.882Z,-0.50
2023-01-22T16:19:40.743Z,-0.52
2023-01-22T16:22:10.287Z,-0.54
2023-01-22T16:24:39.572Z,-0.55
2023-01-22T16:27:09.424Z,-0.59
2023-01-22T16:29:39.981Z,-0.62
2023-01-22T16:32:09.271Z,-0.61
2023-01-22T16:34:38.444Z,-0.55
2023-01-22T16:37:08.023Z,-0.61
2023-01-22T16:39:37.263Z,-0.59
2023-01-22T16:42:06.938Z,-0.61
2023-01-22T16:44:36.162Z,-0.63
2023-01-22T16:47:05.492Z,-0.59
2023-01-22T16:49:35.604Z,-0.61
2023-01-22T16:52:21.348Z,-0.63
2023-01-22T16:54:39.618Z,-0.58
2023-01-22T16:57:09.945Z,-0.63
2023-01-22T16:59:40.866Z,-0.58
2023-01-22T17:02:15.439Z,-0.60
2023-01-22T17:04:45.331Z,-0.64
2023-01-22T17:07:31.645Z,-0.63
2023-01-22T17:09:45.887Z,-0.61
2023-01-22T17:12:15.204Z,-0.62
2023-01-22T17:14:46.135Z,-0.64
2023-01-22T17:17:15.635Z,-0.61
2023-01-22T17:19:44.862Z,-0.61
2023-01-22T17:22:14.362Z,-0.60
2023-01-22T17:24:43.922Z,-0.58
2023-01-22T17:27:14.793Z,-0.56
2023-01-22T17:29:44.396Z,-0.59
2023-01-22T17:32:13.890Z,-0.62
2023-01-22T17:34:43.629Z,-0.60
2023-01-22T17:37:13.659Z,-0.57
2023-01-22T17:39:43.539Z,-0.59
2023-01-22T17:42:13.063Z,-0.58
2023-01-22T17:44:42.287Z,-0.62
2023-01-22T17:47:11.826Z,-0.55
2023-01-22T17:49:41.451Z,-0.56
2023-01-22T17:52:11.484Z,-0.57
2023-01-22T17:54:41.342Z,-0.58
2023-01-22T17:57:11.560Z,-0.58
2023-01-22T17:59:41.044Z,-0.52
2023-01-22T18:02:11.551Z,-0.55
2023-01-22T18:04:41.285Z,-0.56
2023-01-22T18:07:10.526Z,-0.56
2023-01-22T18:09:39.942Z,-0.54
2023-01-22T18:12:09.400Z,-0.55
2023-01-22T18:14:40.723Z,-0.54
2023-01-22T18:17:10.027Z,-0.58
2023-01-22T18:19:39.691Z,-0.57
2023-01-22T18:22:08.983Z,-0.53
2023-01-22T18:24:38.444Z,-0.54
2023-01-22T18:27:07.671Z,-0.55
2023-01-22T18:29:37.297Z,-0.55
2023-01-22T18:32:06.785Z,-0.53
2023-01-22T18:34:36.199Z,-0.54
2023-01-22T18:37:05.425Z,-0.50
2023-01-22T18:39:35.133Z,-0.53
2023-01-22T18:42:04.513Z,-0.52
2023-01-22T18:44:33.818Z,-0.50
2023-01-22T18:47:03.936Z,-0.48
2023-01-22T18:49:33.619Z,-0.49
2023-01-22T18:52:03.246Z,-0.45
2023-01-22T18:54:32.739Z,-0.48
2023-01-22T18:57:02.097Z,-0.43
2023-01-22T18:59:31.780Z,-0.45
2023-01-22T19:02:01.687Z,-0.46
2023-01-22T19:04:31.286Z,-0.48
2023-01-22T19:07:00.885Z,-0.51
2023-01-22T19:09:31.876Z,-0.44
2023-01-22T19:12:01.369Z,-0.45
2023-01-22T19:14:30.791Z,-0.43
2023-01-22T19:17:00.430Z,-0.44
2023-01-22T19:19:29.693Z,-0.43
2023-01-22T19:21:59.036Z,-0.42
2023-01-22T19:24:28.799Z,-0.42
2023-01-22T19:26:58.964Z,-0.44
2023-01-22T19:29:28.483Z,-0.46
2023-01-22T19:31:59.182Z,-0.50
2023-01-22T19:34:30.435Z,-0.53
2023-01-22T19:37:05.442Z,-0.53
2023-01-22T19:39:35.520Z,-0.66
2023-01-22T19:42:06.833Z,-0.68
2023-01-22T19:44:36.352Z,-0.70
2023-01-22T19:47:05.671Z,-0.74
2023-01-22T19:49:35.350Z,-0.71
2023-01-22T19:52:04.903Z,-0.74
2023-01-22T19:54:34.229Z,-0.77
2023-01-22T19:57:03.969Z,-0.78
2023-01-22T19:59:33.475Z,-0.78
2023-01-22T20:02:03.101Z,-0.69
2023-01-22T20:04:33.922Z,-0.69
2023-01-22T20:07:05.752Z,-0.68
2023-01-22T20:09:36.567Z,-0.65
2023-01-22T20:12:08.821Z,-0.65
2023-01-22T20:14:39.593Z,-0.62
2023-01-22T20:17:09.279Z,-0.61
2023-01-22T20:19:39.482Z,-0.63
2023-01-22T20:22:10.857Z,-0.60
2023-01-22T20:24:41.654Z,-0.60
2023-01-22T20:27:11.968Z,-0.63
2023-01-22T20:29:41.646Z,-0.64
2023-01-22T20:32:14.679Z,-0.62
2023-01-22T20:34:45.904Z,-0.65
2023-01-22T20:37:15.791Z,-0.69
2023-01-22T20:39:48.541Z,-0.68
2023-01-22T20:42:18.276Z,-0.69
2023-01-22T20:44:48.379Z,-0.65
2023-01-22T20:47:17.603Z,-0.63
2023-01-22T20:49:47.285Z,-0.63
2023-01-22T20:52:16.553Z,-0.63
2023-01-22T20:55:01.081Z,-0.62
2023-01-22T20:57:19.260Z,-0.62
2023-01-22T20:59:48.396Z,-0.60
2023-01-22T21:02:17.754Z,-0.61
2023-01-22T21:04:47.503Z,-0.57
2023-01-22T21:07:16.868Z,-0.56
2023-01-22T21:09:46.171Z,-0.54
2023-01-22T21:12:15.400Z,-0.55
2023-01-22T21:14:44.980Z,-0.54
2023-01-22T21:17:14.240Z,-0.48
2023-01-22T21:19:44.417Z,-0.47
2023-01-22T21:22:13.750Z,-0.44
2023-01-22T21:24:42.974Z,-0.41
2023-01-22T21:27:12.173Z,-0.44
2023-01-22T21:29:41.691Z,-0.38
2023-01-22T21:32:10.920Z,-0.38
2023-01-22T21:34:40.692Z,-0.32
2023-01-22T21:37:09.875Z,-0.34
2023-01-22T21:39:40.786Z,-0.32
2023-01-22T21:42:28.070Z,-0.35
2023-01-22T21:45:15.675Z,-0.35
2023-01-22T21:47:44.914Z,-0.36
2023-01-22T21:50:14.284Z,-0.31
2023-01-22T21:52:46.038Z,-0.31
2023-01-22T21:55:16.949Z,-0.33
2023-01-22T21:57:46.135Z,-0.34
2023-01-22T22:00:17.021Z,-0.30
2023-01-22T22:02:46.794Z,-0.30
2023-01-22T22:05:16.128Z,-0.29
2023-01-22T22:07:45.831Z,-0.32
2023-01-22T22:10:16.012Z,-0.33
2023-01-22T22:12:45.257Z,-0.31
2023-01-22T22:15:15.032Z,-0.31
2023-01-22T22:17:45.748Z,-0.26
2023-01-22T22:20:15.538Z,-0.30
2023-01-22T22:22:45.982Z,-0.28
2023-01-22T22:25:15.804Z,-0.28
2023-01-22T22:27:45.327Z,-0.23
2023-01-22T22:30:15.299Z,-0.29
2023-01-22T22:32:44.812Z,-0.28
2023-01-22T22:35:14.710Z,-0.26
2023-01-22T22:37:44.080Z,-0.23
2023-01-22T22:40:14.084Z,-0.24
2023-01-22T22:42:43.421Z,-0.28
2023-01-22T22:45:12.785Z,-0.25
2023-01-22T22:47:42.060Z,-0.28
2023-01-22T22:50:11.773Z,-0.28
2023-01-22T22:52:41.153Z,-0.26
2023-01-22T22:55:10.799Z,-0.24
2023-01-22T22:57:40.419Z,-0.23
2023-01-22T23:00:13.466Z,-0.26
2023-01-22T23:02:42.702Z,-0.20
2023-01-22T23:05:12.018Z,-0.20
2023-01-22T23:07:41.244Z,-0.24
2023-01-22T23:10:13.374Z,-0.23
2023-01-22T23:12:42.590Z,-0.24
2023-01-22T23:15:12.631Z,-0.22
2023-01-22T23:17:41.857Z,-0.24
2023-01-22T23:20:12.498Z,-0.25
2023-01-22T23:22:41.711Z,-0.28
2023-01-22T23:25:11.592Z,-0.29
2023-01-22T23:27:40.809Z,-0.33
2023-01-22T23:30:11.437Z,-0.33
2023-01-22T23:32:42.752Z,-0.30
2023-01-22T23:35:12.836Z,-0.34
2023-01-22T23:37:42.061Z,-0.32
2023-01-22T23:40:12.202Z,-0.33
2023-01-22T23:42:41.439Z,-0.32
2023-01-22T23:45:12.067Z,-0.31
2023-01-22T23:47:41.766Z,-0.32
2023-01-22T23:50:11.982Z,-0.31
2023-01-22T23:52:42.794Z,-0.28
2023-01-22T23:55:12.654Z,-0.28
2023-01-22T23:57:42.342Z,-0.29
